sensor_id;sensor_type;location;lat;lon;timestamp;P1;durP1;ratioP1;P2;durP2;ratioP2
9288;SDS011;4683;50.864;12.086;2023-09-30T00:01:41;4.80;;;4.33;;
9288;SDS011;4683;50.864;12.086;2023-09-30T00:04:11;5.60;;;4.83;;
9288;SDS011;4683;50.864;12.086;2023-09-30T00:06:39;7.03;;;5.30;;
9288;SDS011;4683;50.864;12.086;2023-09-30T00:09:07;7.63;;;5.40;;
9288;SDS011;4683;50.864;12.086;2023-09-30T00:11:37;6.60;;;5.73;;
9288;SDS011;4683;50.864;12.086;2023-09-30T00:14:05;7.87;;;5.80;;
9288;SDS011;4683;50.864;12.086;2023-09-30T00:16:34;8.40;;;6.37;;
9288;SDS011;4683;50.864;12.086;2023-09-30T00:19:02;7.93;;;6.60;;
9288;SDS011;4683;50.864;12.086;2023-09-30T00:21:32;7.00;;;6.30;;
9288;SDS011;4683;50.864;12.086;2023-09-30T00:24:05;9.20;;;6.70;;
9288;SDS011;4683;50.864;12.086;2023-09-30T00:26:35;8.40;;;7.47;;
9288;SDS011;4683;50.864;12.086;2023-09-30T00:29:18;8.63;;;6.90;;
9288;SDS011;4683;50.864;12.086;2023-09-30T00:31:46;7.63;;;6.40;;
9288;SDS011;4683;50.864;12.086;2023-09-30T00:34:15;7.57;;;6.83;;
9288;SDS011;4683;50.864;12.086;2023-09-30T00:36:46;10.23;;;6.80;;
9288;SDS011;4683;50.864;12.086;2023-09-30T00:39:15;8.93;;;6.83;;
9288;SDS011;4683;50.864;12.086;2023-09-30T00:41:43;8.23;;;6.87;;
9288;SDS011;4683;50.864;12.086;2023-09-30T00:44:12;7.07;;;6.47;;
9288;SDS011;4683;50.864;12.086;2023-09-30T00:46:40;8.37;;;7.57;;
9288;SDS011;4683;50.864;12.086;2023-09-30T00:49:09;8.03;;;6.80;;
9288;SDS011;4683;50.864;12.086;2023-09-30T00:51:37;7.77;;;7.07;;
9288;SDS011;4683;50.864;12.086;2023-09-30T00:54:08;8.37;;;7.33;;
9288;SDS011;4683;50.864;12.086;2023-09-30T00:56:38;8.23;;;7.43;;
9288;SDS011;4683;50.864;12.086;2023-09-30T00:59:11;8.50;;;7.70;;
9288;SDS011;4683;50.864;12.086;2023-09-30T01:01:41;8.70;;;7.63;;
9288;SDS011;4683;50.864;12.086;2023-09-30T01:04:10;8.47;;;7.67;;
9288;SDS011;4683;50.864;12.086;2023-09-30T01:06:40;9.27;;;8.37;;
9288;SDS011;4683;50.864;12.086;2023-09-30T01:09:10;9.70;;;7.70;;
9288;SDS011;4683;50.864;12.086;2023-09-30T01:11:39;9.53;;;8.10;;
9288;SDS011;4683;50.864;12.086;2023-09-30T01:16:54;9.40;;;8.43;;
9288;SDS011;4683;50.864;12.086;2023-09-30T01:19:23;9.10;;;8.23;;
9288;SDS011;4683;50.864;12.086;2023-09-30T01:21:54;9.03;;;8.17;;
9288;SDS011;4683;50.864;12.086;2023-09-30T01:24:24;9.20;;;8.37;;
9288;SDS011;4683;50.864;12.086;2023-09-30T01:26:53;8.80;;;7.80;;
9288;SDS011;4683;50.864;12.086;2023-09-30T01:29:22;7.20;;;6.47;;
9288;SDS011;4683;50.864;12.086;2023-09-30T01:31:52;7.70;;;6.93;;
9288;SDS011;4683;50.864;12.086;2023-09-30T01:34:20;7.13;;;6.50;;
9288;SDS011;4683;50.864;12.086;2023-09-30T01:36:48;7.37;;;6.57;;
9288;SDS011;4683;50.864;12.086;2023-09-30T01:39:19;6.37;;;5.70;;
9288;SDS011;4683;50.864;12.086;2023-09-30T01:41:48;6.57;;;5.10;;
9288;SDS011;4683;50.864;12.086;2023-09-30T01:44:16;6.13;;;5.47;;
9288;SDS011;4683;50.864;12.086;2023-09-30T01:46:44;5.97;;;5.37;;
9288;SDS011;4683;50.864;12.086;2023-09-30T01:49:13;5.63;;;5.00;;
9288;SDS011;4683;50.864;12.086;2023-09-30T01:51:41;7.80;;;5.30;;
9288;SDS011;4683;50.864;12.086;2023-09-30T01:54:10;5.93;;;5.03;;
9288;SDS011;4683;50.864;12.086;2023-09-30T01:56:39;6.23;;;5.30;;
9288;SDS011;4683;50.864;12.086;2023-09-30T01:59:08;7.10;;;5.10;;
9288;SDS011;4683;50.864;12.086;2023-09-30T02:01:36;9.53;;;5.90;;
9288;SDS011;4683;50.864;12.086;2023-09-30T02:04:05;7.83;;;5.03;;
9288;SDS011;4683;50.864;12.086;2023-09-30T02:06:33;5.93;;;4.60;;
9288;SDS011;4683;50.864;12.086;2023-09-30T02:09:01;6.17;;;4.97;;
9288;SDS011;4683;50.864;12.086;2023-09-30T02:11:34;6.63;;;4.90;;
9288;SDS011;4683;50.864;12.086;2023-09-30T02:14:06;6.80;;;4.93;;
9288;SDS011;4683;50.864;12.086;2023-09-30T02:16:34;6.63;;;4.80;;
9288;SDS011;4683;50.864;12.086;2023-09-30T02:19:04;6.53;;;4.40;;
9288;SDS011;4683;50.864;12.086;2023-09-30T02:21:36;6.53;;;3.77;;
9288;SDS011;4683;50.864;12.086;2023-09-30T02:24:05;7.13;;;4.80;;
9288;SDS011;4683;50.864;12.086;2023-09-30T02:26:34;5.17;;;4.60;;
9288;SDS011;4683;50.864;12.086;2023-09-30T02:29:05;4.77;;;4.30;;
9288;SDS011;4683;50.864;12.086;2023-09-30T02:31:34;5.43;;;4.40;;
9288;SDS011;4683;50.864;12.086;2023-09-30T02:34:02;4.87;;;4.20;;
9288;SDS011;4683;50.864;12.086;2023-09-30T02:40:44;5.20;;;3.90;;
9288;SDS011;4683;50.864;12.086;2023-09-30T02:43:14;8.50;;;4.17;;
9288;SDS011;4683;50.864;12.086;2023-09-30T02:45:49;7.27;;;4.37;;
9288;SDS011;4683;50.864;12.086;2023-09-30T02:48:19;7.97;;;4.77;;
9288;SDS011;4683;50.864;12.086;2023-09-30T02:50:48;8.70;;;4.67;;
9288;SDS011;4683;50.864;12.086;2023-09-30T02:53:17;7.03;;;4.50;;
9288;SDS011;4683;50.864;12.086;2023-09-30T02:55:45;5.23;;;4.37;;
9288;SDS011;4683;50.864;12.086;2023-09-30T02:58:13;6.73;;;4.70;;
9288;SDS011;4683;50.864;12.086;2023-09-30T03:00:42;4.67;;;4.13;;
9288;SDS011;4683;50.864;12.086;2023-09-30T03:03:23;5.37;;;4.20;;
9288;SDS011;4683;50.864;12.086;2023-09-30T03:05:56;5.93;;;4.33;;
9288;SDS011;4683;50.864;12.086;2023-09-30T03:08:26;6.63;;;4.17;;
9288;SDS011;4683;50.864;12.086;2023-09-30T03:10:54;6.03;;;4.23;;
9288;SDS011;4683;50.864;12.086;2023-09-30T03:13:23;6.43;;;4.50;;
9288;SDS011;4683;50.864;12.086;2023-09-30T03:15:52;5.83;;;4.47;;
9288;SDS011;4683;50.864;12.086;2023-09-30T03:18:23;5.73;;;4.00;;
9288;SDS011;4683;50.864;12.086;2023-09-30T03:20:57;6.70;;;4.30;;
9288;SDS011;4683;50.864;12.086;2023-09-30T03:23:28;6.57;;;4.50;;
9288;SDS011;4683;50.864;12.086;2023-09-30T03:25:56;5.33;;;4.33;;
9288;SDS011;4683;50.864;12.086;2023-09-30T03:28:27;5.93;;;4.10;;
9288;SDS011;4683;50.864;12.086;2023-09-30T03:30:57;5.97;;;4.10;;
9288;SDS011;4683;50.864;12.086;2023-09-30T03:33:30;5.43;;;4.00;;
9288;SDS011;4683;50.864;12.086;2023-09-30T03:36:01;7.57;;;4.30;;
9288;SDS011;4683;50.864;12.086;2023-09-30T03:38:30;6.17;;;3.97;;
9288;SDS011;4683;50.864;12.086;2023-09-30T03:40:59;5.60;;;4.40;;
9288;SDS011;4683;50.864;12.086;2023-09-30T03:43:34;5.63;;;4.13;;
9288;SDS011;4683;50.864;12.086;2023-09-30T03:46:08;6.70;;;4.50;;
9288;SDS011;4683;50.864;12.086;2023-09-30T03:48:39;5.33;;;4.07;;
9288;SDS011;4683;50.864;12.086;2023-09-30T03:51:10;6.70;;;3.83;;
9288;SDS011;4683;50.864;12.086;2023-09-30T03:53:40;5.17;;;4.00;;
9288;SDS011;4683;50.864;12.086;2023-09-30T03:56:08;6.70;;;4.13;;
9288;SDS011;4683;50.864;12.086;2023-09-30T03:58:37;7.20;;;3.93;;
9288;SDS011;4683;50.864;12.086;2023-09-30T04:01:06;5.83;;;4.00;;
9288;SDS011;4683;50.864;12.086;2023-09-30T04:03:37;6.83;;;4.20;;
9288;SDS011;4683;50.864;12.086;2023-09-30T04:06:10;4.90;;;3.97;;
9288;SDS011;4683;50.864;12.086;2023-09-30T04:08:38;7.50;;;4.50;;
9288;SDS011;4683;50.864;12.086;2023-09-30T04:11:09;7.70;;;4.50;;
9288;SDS011;4683;50.864;12.086;2023-09-30T04:13:44;7.80;;;4.77;;
9288;SDS011;4683;50.864;12.086;2023-09-30T04:16:14;7.87;;;4.13;;
9288;SDS011;4683;50.864;12.086;2023-09-30T04:18:44;7.87;;;4.47;;
9288;SDS011;4683;50.864;12.086;2023-09-30T04:21:13;5.13;;;4.13;;
9288;SDS011;4683;50.864;12.086;2023-09-30T04:23:44;6.33;;;3.97;;
9288;SDS011;4683;50.864;12.086;2023-09-30T04:26:13;7.83;;;4.07;;
9288;SDS011;4683;50.864;12.086;2023-09-30T04:28:41;6.67;;;4.63;;
9288;SDS011;4683;50.864;12.086;2023-09-30T04:31:09;6.53;;;4.23;;
9288;SDS011;4683;50.864;12.086;2023-09-30T04:33:41;7.93;;;4.50;;
9288;SDS011;4683;50.864;12.086;2023-09-30T04:36:12;6.23;;;4.23;;
9288;SDS011;4683;50.864;12.086;2023-09-30T04:38:40;5.40;;;4.30;;
9288;SDS011;4683;50.864;12.086;2023-09-30T04:41:11;6.37;;;4.20;;
9288;SDS011;4683;50.864;12.086;2023-09-30T04:43:41;5.00;;;3.57;;
9288;SDS011;4683;50.864;12.086;2023-09-30T04:46:09;5.17;;;3.93;;
9288;SDS011;4683;50.864;12.086;2023-09-30T04:48:38;6.40;;;4.10;;
9288;SDS011;4683;50.864;12.086;2023-09-30T04:51:08;6.87;;;3.80;;
9288;SDS011;4683;50.864;12.086;2023-09-30T04:53:45;5.73;;;4.00;;
9288;SDS011;4683;50.864;12.086;2023-09-30T04:56:13;5.70;;;3.83;;
9288;SDS011;4683;50.864;12.086;2023-09-30T04:58:44;5.67;;;4.33;;
9288;SDS011;4683;50.864;12.086;2023-09-30T05:01:14;7.57;;;3.77;;
9288;SDS011;4683;50.864;12.086;2023-09-30T05:03:46;7.37;;;3.83;;
9288;SDS011;4683;50.864;12.086;2023-09-30T05:06:15;7.90;;;3.77;;
9288;SDS011;4683;50.864;12.086;2023-09-30T05:08:44;7.57;;;4.40;;
9288;SDS011;4683;50.864;12.086;2023-09-30T05:11:13;7.00;;;4.20;;
9288;SDS011;4683;50.864;12.086;2023-09-30T05:13:44;5.90;;;4.27;;
9288;SDS011;4683;50.864;12.086;2023-09-30T05:16:14;7.67;;;5.80;;
9288;SDS011;4683;50.864;12.086;2023-09-30T05:18:42;9.07;;;7.77;;
9288;SDS011;4683;50.864;12.086;2023-09-30T05:21:13;6.27;;;3.80;;
9288;SDS011;4683;50.864;12.086;2023-09-30T05:23:41;4.70;;;3.97;;
9288;SDS011;4683;50.864;12.086;2023-09-30T05:26:15;6.43;;;3.67;;
9288;SDS011;4683;50.864;12.086;2023-09-30T05:28:44;7.20;;;3.80;;
9288;SDS011;4683;50.864;12.086;2023-09-30T05:31:16;6.07;;;4.10;;
9288;SDS011;4683;50.864;12.086;2023-09-30T05:33:44;7.40;;;3.77;;
9288;SDS011;4683;50.864;12.086;2023-09-30T05:36:17;11.30;;;3.80;;
9288;SDS011;4683;50.864;12.086;2023-09-30T05:38:47;6.60;;;3.93;;
9288;SDS011;4683;50.864;12.086;2023-09-30T05:41:17;5.80;;;3.67;;
9288;SDS011;4683;50.864;12.086;2023-09-30T05:43:46;6.40;;;4.10;;
9288;SDS011;4683;50.864;12.086;2023-09-30T05:46:16;6.47;;;3.53;;
9288;SDS011;4683;50.864;12.086;2023-09-30T05:48:44;6.53;;;4.40;;
9288;SDS011;4683;50.864;12.086;2023-09-30T05:51:17;7.17;;;4.47;;
9288;SDS011;4683;50.864;12.086;2023-09-30T05:53:46;5.50;;;4.43;;
9288;SDS011;4683;50.864;12.086;2023-09-30T05:56:15;5.93;;;3.90;;
9288;SDS011;4683;50.864;12.086;2023-09-30T05:58:44;6.57;;;5.40;;
9288;SDS011;4683;50.864;12.086;2023-09-30T06:01:12;7.10;;;5.33;;
9288;SDS011;4683;50.864;12.086;2023-09-30T06:03:44;7.37;;;5.00;;
9288;SDS011;4683;50.864;12.086;2023-09-30T06:06:16;8.17;;;6.00;;
9288;SDS011;4683;50.864;12.086;2023-09-30T06:08:45;6.43;;;4.57;;
9288;SDS011;4683;50.864;12.086;2023-09-30T06:11:17;8.40;;;6.40;;
9288;SDS011;4683;50.864;12.086;2023-09-30T06:13:50;8.13;;;5.47;;
9288;SDS011;4683;50.864;12.086;2023-09-30T06:16:18;6.60;;;5.67;;
9288;SDS011;4683;50.864;12.086;2023-09-30T06:18:47;6.17;;;5.10;;
9288;SDS011;4683;50.864;12.086;2023-09-30T06:21:19;6.47;;;5.50;;
9288;SDS011;4683;50.864;12.086;2023-09-30T06:23:50;7.33;;;4.20;;
9288;SDS011;4683;50.864;12.086;2023-09-30T06:26:19;10.37;;;5.40;;
9288;SDS011;4683;50.864;12.086;2023-09-30T06:28:50;9.37;;;5.53;;
9288;SDS011;4683;50.864;12.086;2023-09-30T06:31:21;8.27;;;4.23;;
9288;SDS011;4683;50.864;12.086;2023-09-30T06:33:50;5.30;;;4.70;;
9288;SDS011;4683;50.864;12.086;2023-09-30T06:36:27;6.50;;;4.77;;
9288;SDS011;4683;50.864;12.086;2023-09-30T06:38:55;5.87;;;4.97;;
9288;SDS011;4683;50.864;12.086;2023-09-30T06:41:28;8.90;;;4.70;;
9288;SDS011;4683;50.864;12.086;2023-09-30T06:43:59;6.93;;;4.30;;
9288;SDS011;4683;50.864;12.086;2023-09-30T06:46:27;7.20;;;4.10;;
9288;SDS011;4683;50.864;12.086;2023-09-30T06:48:56;6.33;;;3.70;;
9288;SDS011;4683;50.864;12.086;2023-09-30T06:51:25;9.00;;;4.47;;
9288;SDS011;4683;50.864;12.086;2023-09-30T06:53:54;5.13;;;3.63;;
9288;SDS011;4683;50.864;12.086;2023-09-30T07:00:26;8.73;;;4.90;;
9288;SDS011;4683;50.864;12.086;2023-09-30T07:02:54;5.73;;;3.70;;
9288;SDS011;4683;50.864;12.086;2023-09-30T07:05:23;8.10;;;5.13;;
9288;SDS011;4683;50.864;12.086;2023-09-30T07:07:53;6.17;;;3.60;;
9288;SDS011;4683;50.864;12.086;2023-09-30T07:10:23;5.70;;;3.20;;
9288;SDS011;4683;50.864;12.086;2023-09-30T07:12:52;7.13;;;4.03;;
9288;SDS011;4683;50.864;12.086;2023-09-30T07:15:20;5.77;;;3.43;;
9288;SDS011;4683;50.864;12.086;2023-09-30T07:17:49;8.50;;;3.67;;
9288;SDS011;4683;50.864;12.086;2023-09-30T07:20:18;7.43;;;3.80;;
9288;SDS011;4683;50.864;12.086;2023-09-30T07:22:48;7.37;;;3.60;;
9288;SDS011;4683;50.864;12.086;2023-09-30T07:25:20;5.37;;;3.37;;
9288;SDS011;4683;50.864;12.086;2023-09-30T07:27:49;6.03;;;3.27;;
9288;SDS011;4683;50.864;12.086;2023-09-30T07:30:18;8.27;;;3.70;;
9288;SDS011;4683;50.864;12.086;2023-09-30T07:32:47;8.50;;;3.67;;
9288;SDS011;4683;50.864;12.086;2023-09-30T07:35:16;6.87;;;3.50;;
9288;SDS011;4683;50.864;12.086;2023-09-30T07:37:44;5.97;;;3.30;;
9288;SDS011;4683;50.864;12.086;2023-09-30T07:40:13;5.70;;;3.40;;
9288;SDS011;4683;50.864;12.086;2023-09-30T07:42:44;5.30;;;3.30;;
9288;SDS011;4683;50.864;12.086;2023-09-30T07:45:13;7.20;;;3.70;;
9288;SDS011;4683;50.864;12.086;2023-09-30T07:47:43;7.53;;;3.93;;
9288;SDS011;4683;50.864;12.086;2023-09-30T07:50:12;5.83;;;3.70;;
9288;SDS011;4683;50.864;12.086;2023-09-30T07:52:40;5.70;;;3.50;;
9288;SDS011;4683;50.864;12.086;2023-09-30T07:55:10;6.40;;;3.20;;
9288;SDS011;4683;50.864;12.086;2023-09-30T07:57:41;6.87;;;3.20;;
9288;SDS011;4683;50.864;12.086;2023-09-30T08:00:12;5.93;;;3.63;;
9288;SDS011;4683;50.864;12.086;2023-09-30T08:02:43;5.20;;;3.53;;
9288;SDS011;4683;50.864;12.086;2023-09-30T08:05:12;6.93;;;4.17;;
9288;SDS011;4683;50.864;12.086;2023-09-30T08:07:41;6.73;;;3.33;;
9288;SDS011;4683;50.864;12.086;2023-09-30T08:10:11;5.07;;;3.50;;
9288;SDS011;4683;50.864;12.086;2023-09-30T08:12:44;6.37;;;3.47;;
9288;SDS011;4683;50.864;12.086;2023-09-30T08:15:14;6.00;;;3.40;;
9288;SDS011;4683;50.864;12.086;2023-09-30T08:17:42;5.87;;;3.27;;
9288;SDS011;4683;50.864;12.086;2023-09-30T08:20:11;8.60;;;4.07;;
9288;SDS011;4683;50.864;12.086;2023-09-30T08:22:40;5.93;;;3.40;;
9288;SDS011;4683;50.864;12.086;2023-09-30T08:25:09;6.70;;;3.30;;
9288;SDS011;4683;50.864;12.086;2023-09-30T08:27:37;7.37;;;3.50;;
9288;SDS011;4683;50.864;12.086;2023-09-30T08:30:07;7.50;;;4.00;;
9288;SDS011;4683;50.864;12.086;2023-09-30T08:32:36;6.00;;;3.27;;
9288;SDS011;4683;50.864;12.086;2023-09-30T08:35:05;7.73;;;4.27;;
9288;SDS011;4683;50.864;12.086;2023-09-30T08:37:35;9.50;;;3.30;;
9288;SDS011;4683;50.864;12.086;2023-09-30T08:40:08;7.03;;;3.30;;
9288;SDS011;4683;50.864;12.086;2023-09-30T08:42:38;6.70;;;3.40;;
9288;SDS011;4683;50.864;12.086;2023-09-30T08:45:10;7.77;;;3.67;;
9288;SDS011;4683;50.864;12.086;2023-09-30T08:47:40;5.67;;;3.30;;
9288;SDS011;4683;50.864;12.086;2023-09-30T08:50:12;9.20;;;6.60;;
9288;SDS011;4683;50.864;12.086;2023-09-30T08:52:43;7.17;;;3.40;;
9288;SDS011;4683;50.864;12.086;2023-09-30T08:55:12;6.27;;;3.23;;
9288;SDS011;4683;50.864;12.086;2023-09-30T08:57:41;5.83;;;2.93;;
9288;SDS011;4683;50.864;12.086;2023-09-30T09:00:12;8.80;;;3.40;;
9288;SDS011;4683;50.864;12.086;2023-09-30T09:02:42;7.30;;;3.43;;
9288;SDS011;4683;50.864;12.086;2023-09-30T09:05:10;6.50;;;3.20;;
9288;SDS011;4683;50.864;12.086;2023-09-30T09:07:39;8.17;;;2.63;;
9288;SDS011;4683;50.864;12.086;2023-09-30T09:10:09;6.17;;;3.10;;
9288;SDS011;4683;50.864;12.086;2023-09-30T09:12:40;8.53;;;3.30;;
9288;SDS011;4683;50.864;12.086;2023-09-30T09:15:22;4.47;;;2.70;;
9288;SDS011;4683;50.864;12.086;2023-09-30T09:17:54;5.30;;;2.90;;
9288;SDS011;4683;50.864;12.086;2023-09-30T09:20:23;4.83;;;2.87;;
9288;SDS011;4683;50.864;12.086;2023-09-30T09:22:53;8.00;;;3.30;;
9288;SDS011;4683;50.864;12.086;2023-09-30T09:25:26;7.90;;;3.63;;
9288;SDS011;4683;50.864;12.086;2023-09-30T09:27:54;8.57;;;3.30;;
9288;SDS011;4683;50.864;12.086;2023-09-30T09:30:26;5.70;;;3.07;;
9288;SDS011;4683;50.864;12.086;2023-09-30T09:32:59;6.63;;;3.07;;
9288;SDS011;4683;50.864;12.086;2023-09-30T09:35:31;5.80;;;2.63;;
9288;SDS011;4683;50.864;12.086;2023-09-30T09:38:01;4.40;;;2.37;;
9288;SDS011;4683;50.864;12.086;2023-09-30T09:40:31;4.87;;;2.70;;
9288;SDS011;4683;50.864;12.086;2023-09-30T09:43:01;5.97;;;2.57;;
9288;SDS011;4683;50.864;12.086;2023-09-30T09:45:34;7.03;;;3.10;;
9288;SDS011;4683;50.864;12.086;2023-09-30T09:48:05;7.70;;;2.97;;
9288;SDS011;4683;50.864;12.086;2023-09-30T09:50:34;4.93;;;2.60;;
9288;SDS011;4683;50.864;12.086;2023-09-30T09:53:04;6.57;;;3.03;;
9288;SDS011;4683;50.864;12.086;2023-09-30T09:55:32;6.67;;;3.07;;
9288;SDS011;4683;50.864;12.086;2023-09-30T09:58:04;7.93;;;3.07;;
9288;SDS011;4683;50.864;12.086;2023-09-30T10:00:38;5.00;;;2.53;;
9288;SDS011;4683;50.864;12.086;2023-09-30T10:03:08;4.90;;;2.83;;
9288;SDS011;4683;50.864;12.086;2023-09-30T10:05:38;6.83;;;3.07;;
9288;SDS011;4683;50.864;12.086;2023-09-30T10:08:08;4.50;;;2.30;;
9288;SDS011;4683;50.864;12.086;2023-09-30T10:10:43;7.23;;;2.80;;
9288;SDS011;4683;50.864;12.086;2023-09-30T10:19:18;4.20;;;2.47;;
9288;SDS011;4683;50.864;12.086;2023-09-30T10:24:51;5.13;;;2.70;;
9288;SDS011;4683;50.864;12.086;2023-09-30T10:27:30;5.70;;;2.40;;
9288;SDS011;4683;50.864;12.086;2023-09-30T10:30:07;6.93;;;2.63;;
9288;SDS011;4683;50.864;12.086;2023-09-30T10:35:43;4.03;;;1.97;;
9288;SDS011;4683;50.864;12.086;2023-09-30T10:38:39;5.20;;;3.00;;
9288;SDS011;4683;50.864;12.086;2023-09-30T10:41:07;4.30;;;2.47;;
9288;SDS011;4683;50.864;12.086;2023-09-30T10:43:38;5.17;;;2.77;;
9288;SDS011;4683;50.864;12.086;2023-09-30T10:49:17;9.60;;;2.90;;
9288;SDS011;4683;50.864;12.086;2023-09-30T10:51:59;5.03;;;2.63;;
9288;SDS011;4683;50.864;12.086;2023-09-30T10:54:28;5.57;;;2.80;;
9288;SDS011;4683;50.864;12.086;2023-09-30T10:56:59;3.30;;;2.07;;
9288;SDS011;4683;50.864;12.086;2023-09-30T10:59:29;7.63;;;2.90;;
9288;SDS011;4683;50.864;12.086;2023-09-30T11:02:01;3.60;;;2.53;;
9288;SDS011;4683;50.864;12.086;2023-09-30T11:04:31;5.00;;;2.47;;
9288;SDS011;4683;50.864;12.086;2023-09-30T11:07:16;3.17;;;2.10;;
9288;SDS011;4683;50.864;12.086;2023-09-30T11:09:50;4.20;;;2.50;;
9288;SDS011;4683;50.864;12.086;2023-09-30T11:12:33;5.23;;;2.10;;
9288;SDS011;4683;50.864;12.086;2023-09-30T11:15:06;4.50;;;2.50;;
9288;SDS011;4683;50.864;12.086;2023-09-30T11:17:36;5.67;;;2.67;;
9288;SDS011;4683;50.864;12.086;2023-09-30T11:20:08;4.90;;;2.40;;
9288;SDS011;4683;50.864;12.086;2023-09-30T11:22:38;4.60;;;2.70;;
9288;SDS011;4683;50.864;12.086;2023-09-30T11:25:06;2.63;;;2.30;;
9288;SDS011;4683;50.864;12.086;2023-09-30T11:27:45;4.77;;;2.30;;
9288;SDS011;4683;50.864;12.086;2023-09-30T11:30:14;4.77;;;2.33;;
9288;SDS011;4683;50.864;12.086;2023-09-30T11:32:43;3.50;;;2.17;;
9288;SDS011;4683;50.864;12.086;2023-09-30T11:35:23;3.67;;;2.53;;
9288;SDS011;4683;50.864;12.086;2023-09-30T11:37:52;4.30;;;2.40;;
9288;SDS011;4683;50.864;12.086;2023-09-30T11:40:20;4.20;;;2.40;;
9288;SDS011;4683;50.864;12.086;2023-09-30T11:43:09;4.13;;;2.40;;
9288;SDS011;4683;50.864;12.086;2023-09-30T11:45:38;3.47;;;2.63;;
9288;SDS011;4683;50.864;12.086;2023-09-30T11:48:16;4.73;;;3.07;;
9288;SDS011;4683;50.864;12.086;2023-09-30T11:50:48;4.93;;;2.73;;
9288;SDS011;4683;50.864;12.086;2023-09-30T11:53:19;4.00;;;2.50;;
9288;SDS011;4683;50.864;12.086;2023-09-30T11:55:47;3.97;;;2.27;;
9288;SDS011;4683;50.864;12.086;2023-09-30T11:58:16;3.93;;;2.20;;
9288;SDS011;4683;50.864;12.086;2023-09-30T12:00:48;3.90;;;2.37;;
9288;SDS011;4683;50.864;12.086;2023-09-30T12:03:19;6.33;;;2.67;;
9288;SDS011;4683;50.864;12.086;2023-09-30T12:05:52;5.53;;;2.60;;
9288;SDS011;4683;50.864;12.086;2023-09-30T12:08:24;4.23;;;2.43;;
9288;SDS011;4683;50.864;12.086;2023-09-30T12:10:53;5.03;;;2.40;;
9288;SDS011;4683;50.864;12.086;2023-09-30T12:13:22;3.50;;;2.20;;
9288;SDS011;4683;50.864;12.086;2023-09-30T12:15:53;6.47;;;2.43;;
9288;SDS011;4683;50.864;12.086;2023-09-30T12:18:23;3.07;;;1.90;;
9288;SDS011;4683;50.864;12.086;2023-09-30T12:20:55;4.70;;;2.30;;
9288;SDS011;4683;50.864;12.086;2023-09-30T12:23:23;3.67;;;1.90;;
9288;SDS011;4683;50.864;12.086;2023-09-30T12:25:52;5.47;;;2.73;;
9288;SDS011;4683;50.864;12.086;2023-09-30T12:28:21;3.43;;;2.37;;
9288;SDS011;4683;50.864;12.086;2023-09-30T12:30:51;3.80;;;2.30;;
9288;SDS011;4683;50.864;12.086;2023-09-30T12:33:21;4.83;;;2.50;;
9288;SDS011;4683;50.864;12.086;2023-09-30T12:35:50;5.47;;;2.60;;
9288;SDS011;4683;50.864;12.086;2023-09-30T12:38:22;4.03;;;2.40;;
9288;SDS011;4683;50.864;12.086;2023-09-30T12:40:51;4.37;;;2.20;;
9288;SDS011;4683;50.864;12.086;2023-09-30T12:43:21;3.93;;;1.93;;
9288;SDS011;4683;50.864;12.086;2023-09-30T12:45:51;3.13;;;2.13;;
9288;SDS011;4683;50.864;12.086;2023-09-30T12:48:19;3.90;;;2.43;;
9288;SDS011;4683;50.864;12.086;2023-09-30T12:50:47;4.40;;;2.30;;
9288;SDS011;4683;50.864;12.086;2023-09-30T12:53:16;3.20;;;2.30;;
9288;SDS011;4683;50.864;12.086;2023-09-30T12:55:46;3.97;;;2.60;;
9288;SDS011;4683;50.864;12.086;2023-09-30T12:58:15;4.30;;;2.40;;
9288;SDS011;4683;50.864;12.086;2023-09-30T13:00:44;3.23;;;2.00;;
9288;SDS011;4683;50.864;12.086;2023-09-30T13:03:13;6.97;;;4.67;;
9288;SDS011;4683;50.864;12.086;2023-09-30T13:05:41;4.43;;;2.37;;
9288;SDS011;4683;50.864;12.086;2023-09-30T13:08:12;4.17;;;2.73;;
9288;SDS011;4683;50.864;12.086;2023-09-30T13:10:42;3.83;;;2.30;;
9288;SDS011;4683;50.864;12.086;2023-09-30T13:13:12;4.30;;;2.10;;
9288;SDS011;4683;50.864;12.086;2023-09-30T13:15:42;3.80;;;2.17;;
9288;SDS011;4683;50.864;12.086;2023-09-30T13:18:10;2.17;;;1.83;;
9288;SDS011;4683;50.864;12.086;2023-09-30T13:20:54;5.77;;;2.13;;
9288;SDS011;4683;50.864;12.086;2023-09-30T13:23:23;3.27;;;2.17;;
9288;SDS011;4683;50.864;12.086;2023-09-30T13:25:53;3.53;;;2.17;;
9288;SDS011;4683;50.864;12.086;2023-09-30T13:28:23;3.20;;;2.07;;
9288;SDS011;4683;50.864;12.086;2023-09-30T13:30:54;3.30;;;2.10;;
9288;SDS011;4683;50.864;12.086;2023-09-30T13:33:23;3.07;;;2.30;;
9288;SDS011;4683;50.864;12.086;2023-09-30T13:35:52;4.37;;;2.50;;
9288;SDS011;4683;50.864;12.086;2023-09-30T13:38:22;3.17;;;2.13;;
9288;SDS011;4683;50.864;12.086;2023-09-30T13:40:51;4.40;;;2.17;;
9288;SDS011;4683;50.864;12.086;2023-09-30T13:43:19;4.07;;;2.30;;
9288;SDS011;4683;50.864;12.086;2023-09-30T13:45:49;6.40;;;2.83;;
9288;SDS011;4683;50.864;12.086;2023-09-30T13:48:18;3.90;;;2.20;;
9288;SDS011;4683;50.864;12.086;2023-09-30T13:50:47;2.63;;;2.10;;
9288;SDS011;4683;50.864;12.086;2023-09-30T13:53:16;5.37;;;2.20;;
9288;SDS011;4683;50.864;12.086;2023-09-30T13:55:46;4.23;;;2.07;;
9288;SDS011;4683;50.864;12.086;2023-09-30T13:58:15;2.57;;;2.10;;
9288;SDS011;4683;50.864;12.086;2023-09-30T14:00:46;4.20;;;2.37;;
9288;SDS011;4683;50.864;12.086;2023-09-30T14:03:26;3.03;;;2.07;;
9288;SDS011;4683;50.864;12.086;2023-09-30T14:06:09;4.00;;;2.33;;
9288;SDS011;4683;50.864;12.086;2023-09-30T14:08:40;3.03;;;2.23;;
9288;SDS011;4683;50.864;12.086;2023-09-30T14:11:22;3.60;;;2.20;;
9288;SDS011;4683;50.864;12.086;2023-09-30T14:14:10;3.10;;;1.97;;
9288;SDS011;4683;50.864;12.086;2023-09-30T14:16:40;3.57;;;1.90;;
9288;SDS011;4683;50.864;12.086;2023-09-30T14:19:13;4.63;;;2.10;;
9288;SDS011;4683;50.864;12.086;2023-09-30T14:21:42;5.23;;;2.50;;
9288;SDS011;4683;50.864;12.086;2023-09-30T14:24:13;4.20;;;2.20;;
9288;SDS011;4683;50.864;12.086;2023-09-30T14:26:55;4.17;;;2.50;;
9288;SDS011;4683;50.864;12.086;2023-09-30T14:29:58;4.83;;;2.80;;
9288;SDS011;4683;50.864;12.086;2023-09-30T14:32:31;3.30;;;2.07;;
9288;SDS011;4683;50.864;12.086;2023-09-30T14:35:03;3.93;;;2.20;;
9288;SDS011;4683;50.864;12.086;2023-09-30T14:37:36;4.00;;;2.13;;
9288;SDS011;4683;50.864;12.086;2023-09-30T14:40:07;3.07;;;2.40;;
9288;SDS011;4683;50.864;12.086;2023-09-30T14:42:38;3.33;;;2.30;;
9288;SDS011;4683;50.864;12.086;2023-09-30T14:45:09;4.00;;;2.33;;
9288;SDS011;4683;50.864;12.086;2023-09-30T14:47:39;4.10;;;2.50;;
9288;SDS011;4683;50.864;12.086;2023-09-30T14:50:10;5.80;;;2.40;;
9288;SDS011;4683;50.864;12.086;2023-09-30T14:52:39;4.53;;;2.60;;
9288;SDS011;4683;50.864;12.086;2023-09-30T14:55:10;4.00;;;2.27;;
9288;SDS011;4683;50.864;12.086;2023-09-30T14:57:41;5.13;;;2.80;;
9288;SDS011;4683;50.864;12.086;2023-09-30T15:00:10;4.63;;;2.27;;
9288;SDS011;4683;50.864;12.086;2023-09-30T15:02:41;7.33;;;2.50;;
9288;SDS011;4683;50.864;12.086;2023-09-30T15:05:13;4.97;;;2.13;;
9288;SDS011;4683;50.864;12.086;2023-09-30T15:07:42;4.30;;;3.30;;
9288;SDS011;4683;50.864;12.086;2023-09-30T15:10:12;4.40;;;2.70;;
9288;SDS011;4683;50.864;12.086;2023-09-30T15:12:47;7.03;;;2.90;;
9288;SDS011;4683;50.864;12.086;2023-09-30T15:15:38;4.73;;;2.60;;
9288;SDS011;4683;50.864;12.086;2023-09-30T15:18:07;4.97;;;2.57;;
9288;SDS011;4683;50.864;12.086;2023-09-30T15:20:40;5.17;;;2.70;;
9288;SDS011;4683;50.864;12.086;2023-09-30T15:23:10;4.03;;;2.47;;
9288;SDS011;4683;50.864;12.086;2023-09-30T15:25:40;3.57;;;2.70;;
9288;SDS011;4683;50.864;12.086;2023-09-30T15:28:10;4.13;;;2.53;;
9288;SDS011;4683;50.864;12.086;2023-09-30T15:30:39;3.90;;;2.80;;
9288;SDS011;4683;50.864;12.086;2023-09-30T15:33:09;4.20;;;2.70;;
9288;SDS011;4683;50.864;12.086;2023-09-30T15:35:53;5.27;;;2.67;;
9288;SDS011;4683;50.864;12.086;2023-09-30T15:38:22;7.60;;;2.60;;
9288;SDS011;4683;50.864;12.086;2023-09-30T15:40:52;4.47;;;2.53;;
9288;SDS011;4683;50.864;12.086;2023-09-30T15:43:27;3.90;;;2.20;;
9288;SDS011;4683;50.864;12.086;2023-09-30T15:45:55;4.10;;;2.30;;
9288;SDS011;4683;50.864;12.086;2023-09-30T15:48:28;3.60;;;2.20;;